sensor_id;sensor_type;location;lat;lon;timestamp;temperature;humidity
65598;SHT31;52267;51.984;20.956;2023-04-03T00:01:19;2.96;73.83
65598;SHT31;52267;51.984;20.956;2023-04-03T00:03:47;2.93;73.79
65598;SHT31;52267;51.984;20.956;2023-04-03T00:06:14;2.90;73.63
65598;SHT31;52267;51.984;20.956;2023-04-03T00:08:41;2.85;73.57
65598;SHT31;52267;51.984;20.956;2023-04-03T00:11:08;2.82;73.61
65598;SHT31;52267;51.984;20.956;2023-04-03T00:13:36;2.80;73.26
65598;SHT31;52267;51.984;20.956;2023-04-03T00:16:04;2.76;73.57
65598;SHT31;52267;51.984;20.956;2023-04-03T00:18:32;2.72;73.29
65598;SHT31;52267;51.984;20.956;2023-04-03T00:20:59;2.68;72.88
65598;SHT31;52267;51.984;20.956;2023-04-03T00:23:26;2.64;72.48
65598;SHT31;52267;51.984;20.956;2023-04-03T00:25:54;2.61;72.70
65598;SHT31;52267;51.984;20.956;2023-04-03T00:28:21;2.58;72.71
65598;SHT31;52267;51.984;20.956;2023-04-03T00:30:49;2.54;72.84
65598;SHT31;52267;51.984;20.956;2023-04-03T00:33:17;2.51;72.86
65598;SHT31;52267;51.984;20.956;2023-04-03T00:35:48;2.48;72.91
65598;SHT31;52267;51.984;20.956;2023-04-03T00:38:15;2.46;72.74
65598;SHT31;52267;51.984;20.956;2023-04-03T00:40:44;2.42;72.72
65598;SHT31;52267;51.984;20.956;2023-04-03T00:43:18;2.38;72.88
65598;SHT31;52267;51.984;20.956;2023-04-03T00:45:49;2.34;72.59
65598;SHT31;52267;51.984;20.956;2023-04-03T00:48:29;2.27;71.73
65598;SHT31;52267;51.984;20.956;2023-04-03T00:51:21;2.21;71.77
65598;SHT31;52267;51.984;20.956;2023-04-03T00:53:58;2.17;71.31
65598;SHT31;52267;51.984;20.956;2023-04-03T00:56:29;2.14;71.97
65598;SHT31;52267;51.984;20.956;2023-04-03T00:59:02;2.12;72.14
65598;SHT31;52267;51.984;20.956;2023-04-03T01:01:34;2.09;71.40
65598;SHT31;52267;51.984;20.956;2023-04-03T01:04:02;2.06;71.74
65598;SHT31;52267;51.984;20.956;2023-04-03T01:06:34;2.04;71.49
65598;SHT31;52267;51.984;20.956;2023-04-03T01:09:03;2.00;72.10
65598;SHT31;52267;51.984;20.956;2023-04-03T01:11:31;1.97;72.16
65598;SHT31;52267;51.984;20.956;2023-04-03T01:13:59;1.94;72.09
65598;SHT31;52267;51.984;20.956;2023-04-03T01:16:28;1.90;71.97
65598;SHT31;52267;51.984;20.956;2023-04-03T01:18:58;1.88;71.85
65598;SHT31;52267;51.984;20.956;2023-04-03T01:21:41;1.84;71.69
65598;SHT31;52267;51.984;20.956;2023-04-03T01:27:01;1.79;71.52
65598;SHT31;52267;51.984;20.956;2023-04-03T01:29:31;1.74;71.66
65598;SHT31;52267;51.984;20.956;2023-04-03T01:31:58;1.72;71.87
65598;SHT31;52267;51.984;20.956;2023-04-03T01:34:29;1.70;71.79
65598;SHT31;52267;51.984;20.956;2023-04-03T01:36:57;1.65;71.06
65598;SHT31;52267;51.984;20.956;2023-04-03T01:39:24;1.62;70.99
65598;SHT31;52267;51.984;20.956;2023-04-03T01:41:51;1.60;71.50
65598;SHT31;52267;51.984;20.956;2023-04-03T01:44:19;1.57;71.41
65598;SHT31;52267;51.984;20.956;2023-04-03T01:46:46;1.55;71.43
65598;SHT31;52267;51.984;20.956;2023-04-03T01:49:13;1.51;71.35
65598;SHT31;52267;51.984;20.956;2023-04-03T01:51:40;1.49;71.21
65598;SHT31;52267;51.984;20.956;2023-04-03T01:54:07;1.46;71.32
65598;SHT31;52267;51.984;20.956;2023-04-03T01:56:34;1.43;70.91
65598;SHT31;52267;51.984;20.956;2023-04-03T01:59:01;1.40;70.63
65598;SHT31;52267;51.984;20.956;2023-04-03T02:01:28;1.37;71.02
65598;SHT31;52267;51.984;20.956;2023-04-03T02:03:55;1.35;71.12
65598;SHT31;52267;51.984;20.956;2023-04-03T02:06:22;1.32;70.84
65598;SHT31;52267;51.984;20.956;2023-04-03T02:08:49;1.29;70.63
65598;SHT31;52267;51.984;20.956;2023-04-03T02:11:16;1.26;70.92
65598;SHT31;52267;51.984;20.956;2023-04-03T02:13:43;1.25;70.94
65598;SHT31;52267;51.984;20.956;2023-04-03T02:16:11;1.23;70.73
65598;SHT31;52267;51.984;20.956;2023-04-03T02:18:39;1.19;70.80
65598;SHT31;52267;51.984;20.956;2023-04-03T02:21:06;1.17;70.96
65598;SHT31;52267;51.984;20.956;2023-04-03T02:23:33;1.16;71.13
65598;SHT31;52267;51.984;20.956;2023-04-03T02:26:03;1.12;70.89
65598;SHT31;52267;51.984;20.956;2023-04-03T02:28:36;1.08;70.79
65598;SHT31;52267;51.984;20.956;2023-04-03T02:31:04;1.06;71.06
65598;SHT31;52267;51.984;20.956;2023-04-03T02:33:33;1.02;70.75
65598;SHT31;52267;51.984;20.956;2023-04-03T02:36:06;1.00;70.94
65598;SHT31;52267;51.984;20.956;2023-04-03T02:38:34;0.96;70.96
65598;SHT31;52267;51.984;20.956;2023-04-03T02:41:02;0.93;70.81
65598;SHT31;52267;51.984;20.956;2023-04-03T02:43:31;0.91;70.86
65598;SHT31;52267;51.984;20.956;2023-04-03T02:45:59;0.89;70.87
65598;SHT31;52267;51.984;20.956;2023-04-03T02:48:26;0.86;70.63
65598;SHT31;52267;51.984;20.956;2023-04-03T02:50:54;0.84;70.87
65598;SHT31;52267;51.984;20.956;2023-04-03T02:53:21;0.80;70.74
65598;SHT31;52267;51.984;20.956;2023-04-03T02:55:48;0.78;70.94
65598;SHT31;52267;51.984;20.956;2023-04-03T02:58:15;0.76;70.95
65598;SHT31;52267;51.984;20.956;2023-04-03T03:00:42;0.74;70.72
65598;SHT31;52267;51.984;20.956;2023-04-03T03:03:10;0.73;70.50
65598;SHT31;52267;51.984;20.956;2023-04-03T03:05:37;0.70;70.38
65598;SHT31;52267;51.984;20.956;2023-04-03T03:08:04;0.69;70.78
65598;SHT31;52267;51.984;20.956;2023-04-03T03:10:31;0.65;70.96
65598;SHT31;52267;51.984;20.956;2023-04-03T03:12:58;0.62;70.54
65598;SHT31;52267;51.984;20.956;2023-04-03T03:15:25;0.61;70.88
65598;SHT31;52267;51.984;20.956;2023-04-03T03:17:52;0.58;70.67
65598;SHT31;52267;51.984;20.956;2023-04-03T03:20:19;0.57;70.71
65598;SHT31;52267;51.984;20.956;2023-04-03T03:22:47;0.53;70.87
65598;SHT31;52267;51.984;20.956;2023-04-03T03:25:14;0.52;71.10
65598;SHT31;52267;51.984;20.956;2023-04-03T03:27:41;0.49;71.05
65598;SHT31;52267;51.984;20.956;2023-04-03T03:30:08;0.46;71.01
65598;SHT31;52267;51.984;20.956;2023-04-03T03:32:35;0.43;70.94
65598;SHT31;52267;51.984;20.956;2023-04-03T03:35:02;0.42;70.94
65598;SHT31;52267;51.984;20.956;2023-04-03T03:37:30;0.40;70.83
65598;SHT31;52267;51.984;20.956;2023-04-03T03:39:57;0.38;70.88
65598;SHT31;52267;51.984;20.956;2023-04-03T03:42:24;0.37;70.96
65598;SHT31;52267;51.984;20.956;2023-04-03T03:44:51;0.35;70.91
65598;SHT31;52267;51.984;20.956;2023-04-03T03:47:18;0.32;70.98
65598;SHT31;52267;51.984;20.956;2023-04-03T03:49:46;0.30;71.03
65598;SHT31;52267;51.984;20.956;2023-04-03T03:52:13;0.27;71.07
65598;SHT31;52267;51.984;20.956;2023-04-03T03:54:41;0.25;71.06
65598;SHT31;52267;51.984;20.956;2023-04-03T03:57:08;0.25;71.13
65598;SHT31;52267;51.984;20.956;2023-04-03T03:59:35;0.22;71.05
65598;SHT31;52267;51.984;20.956;2023-04-03T04:02:02;0.21;70.76
65598;SHT31;52267;51.984;20.956;2023-04-03T04:04:29;0.20;70.83
65598;SHT31;52267;51.984;20.956;2023-04-03T04:06:56;0.18;70.99
65598;SHT31;52267;51.984;20.956;2023-04-03T04:09:23;0.17;71.17
65598;SHT31;52267;51.984;20.956;2023-04-03T04:11:50;0.16;71.24
65598;SHT31;52267;51.984;20.956;2023-04-03T04:14:17;0.14;71.31
65598;SHT31;52267;51.984;20.956;2023-04-03T04:16:44;0.12;71.36
65598;SHT31;52267;51.984;20.956;2023-04-03T04:19:12;0.09;71.42
65598;SHT31;52267;51.984;20.956;2023-04-03T04:21:39;0.08;71.53
65598;SHT31;52267;51.984;20.956;2023-04-03T04:24:08;0.06;71.56
65598;SHT31;52267;51.984;20.956;2023-04-03T04:26:35;0.06;71.56
65598;SHT31;52267;51.984;20.956;2023-04-03T04:29:02;0.05;71.54
65598;SHT31;52267;51.984;20.956;2023-04-03T04:31:30;0.03;71.51
65598;SHT31;52267;51.984;20.956;2023-04-03T04:33:57;0.02;71.62
65598;SHT31;52267;51.984;20.956;2023-04-03T04:36:24;0.00;71.54
65598;SHT31;52267;51.984;20.956;2023-04-03T04:38:51;-0.00;71.72
65598;SHT31;52267;51.984;20.956;2023-04-03T04:41:22;-0.01;71.61
65598;SHT31;52267;51.984;20.956;2023-04-03T04:43:50;-0.02;71.68
65598;SHT31;52267;51.984;20.956;2023-04-03T04:46:17;-0.01;71.72
65598;SHT31;52267;51.984;20.956;2023-04-03T04:48:44;-0.01;71.63
65598;SHT31;52267;51.984;20.956;2023-04-03T04:51:12;-0.01;71.52
65598;SHT31;52267;51.984;20.956;2023-04-03T04:53:39;0.00;71.48
65598;SHT31;52267;51.984;20.956;2023-04-03T04:56:06;0.01;71.32
65598;SHT31;52267;51.984;20.956;2023-04-03T04:58:34;0.00;71.44
65598;SHT31;52267;51.984;20.956;2023-04-03T05:01:06;0.00;71.53
65598;SHT31;52267;51.984;20.956;2023-04-03T05:03:35;0.00;71.62
65598;SHT31;52267;51.984;20.956;2023-04-03T05:06:03;0.01;71.44
65598;SHT31;52267;51.984;20.956;2023-04-03T05:08:30;0.00;71.45
65598;SHT31;52267;51.984;20.956;2023-04-03T05:10:58;0.00;71.59
65598;SHT31;52267;51.984;20.956;2023-04-03T05:13:25;0.01;71.63
65598;SHT31;52267;51.984;20.956;2023-04-03T05:15:52;0.01;71.50
65598;SHT31;52267;51.984;20.956;2023-04-03T05:18:19;0.00;71.31
65598;SHT31;52267;51.984;20.956;2023-04-03T05:20:48;0.01;71.57
65598;SHT31;52267;51.984;20.956;2023-04-03T05:23:16;0.02;71.66
65598;SHT31;52267;51.984;20.956;2023-04-03T05:25:44;0.01;71.52
65598;SHT31;52267;51.984;20.956;2023-04-03T05:28:13;0.01;71.49
65598;SHT31;52267;51.984;20.956;2023-04-03T05:30:40;0.03;71.43
65598;SHT31;52267;51.984;20.956;2023-04-03T05:33:07;0.06;71.36
65598;SHT31;52267;51.984;20.956;2023-04-03T05:35:36;0.10;71.43
65598;SHT31;52267;51.984;20.956;2023-04-03T05:38:07;0.14;71.53
65598;SHT31;52267;51.984;20.956;2023-04-03T05:40:34;0.19;71.46
65598;SHT31;52267;51.984;20.956;2023-04-03T05:43:01;0.21;71.37
65598;SHT31;52267;51.984;20.956;2023-04-03T05:45:29;0.24;71.18
65598;SHT31;52267;51.984;20.956;2023-04-03T05:47:57;0.30;71.20
65598;SHT31;52267;51.984;20.956;2023-04-03T05:50:24;0.36;71.21
65598;SHT31;52267;51.984;20.956;2023-04-03T05:52:51;0.43;71.05
65598;SHT31;52267;51.984;20.956;2023-04-03T05:55:22;0.49;70.39
65598;SHT31;52267;51.984;20.956;2023-04-03T05:57:49;0.57;70.64
65598;SHT31;52267;51.984;20.956;2023-04-03T06:00:16;0.65;70.78
65598;SHT31;52267;51.984;20.956;2023-04-03T06:02:44;0.73;70.71
65598;SHT31;52267;51.984;20.956;2023-04-03T06:05:11;0.78;70.32
65598;SHT31;52267;51.984;20.956;2023-04-03T06:07:40;0.89;70.45
65598;SHT31;52267;51.984;20.956;2023-04-03T06:10:07;0.96;69.71
65598;SHT31;52267;51.984;20.956;2023-04-03T06:12:35;1.02;69.61
65598;SHT31;52267;51.984;20.956;2023-04-03T06:15:02;1.17;69.56
65598;SHT31;52267;51.984;20.956;2023-04-03T06:17:30;1.31;69.27
65598;SHT31;52267;51.984;20.956;2023-04-03T06:19:57;1.42;69.39
65598;SHT31;52267;51.984;20.956;2023-04-03T06:22:24;1.49;69.50
65598;SHT31;52267;51.984;20.956;2023-04-03T06:24:52;1.59;69.60
65598;SHT31;52267;51.984;20.956;2023-04-03T06:27:19;1.72;69.32
65598;SHT31;52267;51.984;20.956;2023-04-03T06:29:46;1.91;69.14
65598;SHT31;52267;51.984;20.956;2023-04-03T06:32:15;2.01;68.36
65598;SHT31;52267;51.984;20.956;2023-04-03T06:34:43;2.11;68.72
65598;SHT31;52267;51.984;20.956;2023-04-03T06:37:10;2.18;68.12
65598;SHT31;52267;51.984;20.956;2023-04-03T06:39:44;2.28;68.33
65598;SHT31;52267;51.984;20.956;2023-04-03T06:42:11;2.41;68.06
65598;SHT31;52267;51.984;20.956;2023-04-03T06:44:39;2.57;68.11
65598;SHT31;52267;51.984;20.956;2023-04-03T06:47:06;2.73;67.09
65598;SHT31;52267;51.984;20.956;2023-04-03T06:49:37;2.75;66.33
65598;SHT31;52267;51.984;20.956;2023-04-03T06:52:04;2.79;66.11
65598;SHT31;52267;51.984;20.956;2023-04-03T06:54:31;2.83;66.79
65598;SHT31;52267;51.984;20.956;2023-04-03T06:56:59;2.91;66.92
65598;SHT31;52267;51.984;20.956;2023-04-03T06:59:26;3.01;66.11
65598;SHT31;52267;51.984;20.956;2023-04-03T07:01:53;3.14;66.46
65598;SHT31;52267;51.984;20.956;2023-04-03T07:04:21;3.28;65.33
65598;SHT31;52267;51.984;20.956;2023-04-03T07:06:48;3.34;65.25
65598;SHT31;52267;51.984;20.956;2023-04-03T07:09:15;3.42;65.39
65598;SHT31;52267;51.984;20.956;2023-04-03T07:11:42;3.55;65.46
65598;SHT31;52267;51.984;20.956;2023-04-03T07:14:09;3.70;65.15
65598;SHT31;52267;51.984;20.956;2023-04-03T07:16:37;4.01;64.21
65598;SHT31;52267;51.984;20.956;2023-04-03T07:19:04;4.20;64.76
65598;SHT31;52267;51.984;20.956;2023-04-03T07:21:31;4.16;63.51
65598;SHT31;52267;51.984;20.956;2023-04-03T07:23:58;4.18;63.97
65598;SHT31;52267;51.984;20.956;2023-04-03T07:26:25;4.21;63.31
65598;SHT31;52267;51.984;20.956;2023-04-03T07:28:52;4.28;63.08
65598;SHT31;52267;51.984;20.956;2023-04-03T07:31:19;4.37;63.90
65598;SHT31;52267;51.984;20.956;2023-04-03T07:33:46;4.46;63.49
65598;SHT31;52267;51.984;20.956;2023-04-03T07:36:15;4.46;62.20
65598;SHT31;52267;51.984;20.956;2023-04-03T07:38:45;4.61;62.44
65598;SHT31;52267;51.984;20.956;2023-04-03T07:41:16;4.78;62.00
65598;SHT31;52267;51.984;20.956;2023-04-03T07:43:46;4.73;61.85
65598;SHT31;52267;51.984;20.956;2023-04-03T07:46:13;4.70;61.09
65598;SHT31;52267;51.984;20.956;2023-04-03T07:48:40;4.73;62.69
65598;SHT31;52267;51.984;20.956;2023-04-03T07:51:07;4.92;60.99
65598;SHT31;52267;51.984;20.956;2023-04-03T07:53:36;5.10;60.34
65598;SHT31;52267;51.984;20.956;2023-04-03T07:56:02;5.19;61.14
65598;SHT31;52267;51.984;20.956;2023-04-03T07:58:30;5.46;58.91
65598;SHT31;52267;51.984;20.956;2023-04-03T08:00:57;5.63;59.55
65598;SHT31;52267;51.984;20.956;2023-04-03T08:03:24;5.60;60.24
65598;SHT31;52267;51.984;20.956;2023-04-03T08:05:51;5.69;59.22
65598;SHT31;52267;51.984;20.956;2023-04-03T08:08:21;5.70;58.97
65598;SHT31;52267;51.984;20.956;2023-04-03T08:10:52;5.58;59.05
65598;SHT31;52267;51.984;20.956;2023-04-03T08:13:21;5.50;59.36
65598;SHT31;52267;51.984;20.956;2023-04-03T08:15:48;5.69;58.83
65598;SHT31;52267;51.984;20.956;2023-04-03T08:18:16;5.78;58.08
65598;SHT31;52267;51.984;20.956;2023-04-03T08:20:44;5.86;58.19
65598;SHT31;52267;51.984;20.956;2023-04-03T08:23:12;5.73;58.08
65598;SHT31;52267;51.984;20.956;2023-04-03T08:25:40;5.68;56.46
65598;SHT31;52267;51.984;20.956;2023-04-03T08:28:08;5.69;57.34
65598;SHT31;52267;51.984;20.956;2023-04-03T08:30:40;5.87;54.06
65598;SHT31;52267;51.984;20.956;2023-04-03T08:33:09;6.12;55.15
65598;SHT31;52267;51.984;20.956;2023-04-03T08:35:40;6.37;55.12
65598;SHT31;52267;51.984;20.956;2023-04-03T08:38:08;6.11;57.03
65598;SHT31;52267;51.984;20.956;2023-04-03T08:40:36;5.88;55.92
65598;SHT31;52267;51.984;20.956;2023-04-03T08:45:57;5.77;55.69
65598;SHT31;52267;51.984;20.956;2023-04-03T08:48:29;6.05;55.44
65598;SHT31;52267;51.984;20.956;2023-04-03T08:51:04;6.45;53.56
65598;SHT31;52267;51.984;20.956;2023-04-03T08:53:43;6.92;53.22
65598;SHT31;52267;51.984;20.956;2023-04-03T08:56:30;6.72;53.85
65598;SHT31;52267;51.984;20.956;2023-04-03T08:59:00;6.43;53.27
65598;SHT31;52267;51.984;20.956;2023-04-03T09:01:34;6.24;53.93
65598;SHT31;52267;51.984;20.956;2023-04-03T09:04:11;6.11;53.88
65598;SHT31;52267;51.984;20.956;2023-04-03T09:06:45;5.95;53.23
65598;SHT31;52267;51.984;20.956;2023-04-03T09:21:01;7.00;49.78
65598;SHT31;52267;51.984;20.956;2023-04-03T09:23:45;7.09;50.58
65598;SHT31;52267;51.984;20.956;2023-04-03T09:26:18;7.30;50.74
65598;SHT31;52267;51.984;20.956;2023-04-03T09:29:06;7.75;49.73
65598;SHT31;52267;51.984;20.956;2023-04-03T09:31:36;8.03;50.11
65598;SHT31;52267;51.984;20.956;2023-04-03T09:34:07;7.79;50.18
65598;SHT31;52267;51.984;20.956;2023-04-03T09:36:47;7.53;50.75
65598;SHT31;52267;51.984;20.956;2023-04-03T09:39:22;7.60;48.19
65598;SHT31;52267;51.984;20.956;2023-04-03T09:42:13;7.99;49.08
65598;SHT31;52267;51.984;20.956;2023-04-03T09:44:54;8.35;47.24
65598;SHT31;52267;51.984;20.956;2023-04-03T09:47:34;8.59;48.76
65598;SHT31;52267;51.984;20.956;2023-04-03T09:52:44;8.82;46.38
65598;SHT31;52267;51.984;20.956;2023-04-03T09:55:19;9.24;43.49
65598;SHT31;52267;51.984;20.956;2023-04-03T09:57:54;9.56;44.63
65598;SHT31;52267;51.984;20.956;2023-04-03T10:00:25;9.74;44.66
65598;SHT31;52267;51.984;20.956;2023-04-03T10:03:04;9.72;43.82
65598;SHT31;52267;51.984;20.956;2023-04-03T10:05:37;10.16;45.13
65598;SHT31;52267;51.984;20.956;2023-04-03T10:10:40;10.24;42.67
65598;SHT31;52267;51.984;20.956;2023-04-03T10:13:17;9.95;45.17
65598;SHT31;52267;51.984;20.956;2023-04-03T10:16:03;9.92;43.62
65598;SHT31;52267;51.984;20.956;2023-04-03T10:18:49;9.88;44.04
65598;SHT31;52267;51.984;20.956;2023-04-03T10:22:06;9.92;45.22
65598;SHT31;52267;51.984;20.956;2023-04-03T10:42:41;7.66;45.67
65598;SHT31;52267;51.984;20.956;2023-04-03T10:45:24;7.90;46.14
65598;SHT31;52267;51.984;20.956;2023-04-03T10:51:08;8.74;44.85
65598;SHT31;52267;51.984;20.956;2023-04-03T10:56:38;8.44;44.96
65598;SHT31;52267;51.984;20.956;2023-04-03T10:59:14;7.97;45.54
65598;SHT31;52267;51.984;20.956;2023-04-03T11:05:18;8.26;45.20
65598;SHT31;52267;51.984;20.956;2023-04-03T11:08:12;8.68;43.61
65598;SHT31;52267;51.984;20.956;2023-04-03T11:10:50;9.22;43.68
65598;SHT31;52267;51.984;20.956;2023-04-03T11:13:27;9.37;43.50
65598;SHT31;52267;51.984;20.956;2023-04-03T11:16:19;9.08;43.76
65598;SHT31;52267;51.984;20.956;2023-04-03T11:18:52;8.83;44.84
65598;SHT31;52267;51.984;20.956;2023-04-03T11:21:29;8.59;45.16
65598;SHT31;52267;51.984;20.956;2023-04-03T11:24:11;8.79;43.89
65598;SHT31;52267;51.984;20.956;2023-04-03T11:26:53;9.11;43.88
65598;SHT31;52267;51.984;20.956;2023-04-03T11:29:24;9.38;43.10
65598;SHT31;52267;51.984;20.956;2023-04-03T11:32:07;9.16;43.44
65598;SHT31;52267;51.984;20.956;2023-04-03T11:34:53;9.01;44.57
65598;SHT31;52267;51.984;20.956;2023-04-03T11:37:33;9.33;44.04
65598;SHT31;52267;51.984;20.956;2023-04-03T11:40:05;9.20;43.34
65598;SHT31;52267;51.984;20.956;2023-04-03T11:51:00;8.10;45.21
65598;SHT31;52267;51.984;20.956;2023-04-03T11:53:53;7.79;43.94
65598;SHT31;52267;51.984;20.956;2023-04-03T11:56:27;7.56;45.32
65598;SHT31;52267;51.984;20.956;2023-04-03T12:01:49;7.66;44.67
65598;SHT31;52267;51.984;20.956;2023-04-03T12:04:23;7.65;44.72
65598;SHT31;52267;51.984;20.956;2023-04-03T12:06:57;7.87;44.97
65598;SHT31;52267;51.984;20.956;2023-04-03T12:15:11;7.86;43.89
65598;SHT31;52267;51.984;20.956;2023-04-03T12:21:12;7.83;44.94
65598;SHT31;52267;51.984;20.956;2023-04-03T12:43:08;7.85;43.60
65598;SHT31;52267;51.984;20.956;2023-04-03T12:48:31;7.60;44.22
65598;SHT31;52267;51.984;20.956;2023-04-03T12:51:05;7.42;44.62
65598;SHT31;52267;51.984;20.956;2023-04-03T12:53:34;7.39;44.76
65598;SHT31;52267;51.984;20.956;2023-04-03T12:56:22;7.42;44.90
65598;SHT31;52267;51.984;20.956;2023-04-03T12:58:57;7.52;44.87
65598;SHT31;52267;51.984;20.956;2023-04-03T13:01:56;7.72;44.52
65598;SHT31;52267;51.984;20.956;2023-04-03T13:04:28;7.86;44.31
65598;SHT31;52267;51.984;20.956;2023-04-03T13:06:58;8.03;43.21
65598;SHT31;52267;51.984;20.956;2023-04-03T13:09:29;8.02;43.00
65598;SHT31;52267;51.984;20.956;2023-04-03T13:14:40;7.94;44.33
65598;SHT31;52267;51.984;20.956;2023-04-03T13:17:16;7.83;43.84
65598;SHT31;52267;51.984;20.956;2023-04-03T13:19:44;7.94;43.85
65598;SHT31;52267;51.984;20.956;2023-04-03T13:22:33;8.34;43.85
65598;SHT31;52267;51.984;20.956;2023-04-03T13:25:19;8.70;43.41
65598;SHT31;52267;51.984;20.956;2023-04-03T13:27:49;8.83;42.57
65598;SHT31;52267;51.984;20.956;2023-04-03T13:30:21;8.97;42.35
65598;SHT31;52267;51.984;20.956;2023-04-03T13:33:04;9.12;42.80
65598;SHT31;52267;51.984;20.956;2023-04-03T13:35:46;8.98;41.86
65598;SHT31;52267;51.984;20.956;2023-04-03T13:40:50;8.73;42.05
65598;SHT31;52267;51.984;20.956;2023-04-03T13:43:22;8.58;42.69
65598;SHT31;52267;51.984;20.956;2023-04-03T13:46:36;8.41;43.77
65598;SHT31;52267;51.984;20.956;2023-04-03T13:48:47;8.17;43.16
65598;SHT31;52267;51.984;20.956;2023-04-03T13:51:19;8.29;42.84
65598;SHT31;52267;51.984;20.956;2023-04-03T13:53:53;8.29;43.14
65598;SHT31;52267;51.984;20.956;2023-04-03T13:56:30;8.38;42.95
65598;SHT31;52267;51.984;20.956;2023-04-03T14:04:44;8.34;42.82
65598;SHT31;52267;51.984;20.956;2023-04-03T14:07:24;8.12;42.47
65598;SHT31;52267;51.984;20.956;2023-04-03T14:09:52;8.03;43.27
65598;SHT31;52267;51.984;20.956;2023-04-03T14:12:31;8.02;43.63
65598;SHT31;52267;51.984;20.956;2023-04-03T14:17:51;7.68;42.75
65598;SHT31;52267;51.984;20.956;2023-04-03T14:20:20;7.60;44.15
65598;SHT31;52267;51.984;20.956;2023-04-03T14:22:51;7.56;44.51
65598;SHT31;52267;51.984;20.956;2023-04-03T14:25:20;7.53;44.47
65598;SHT31;52267;51.984;20.956;2023-04-03T14:27:52;7.68;44.70
65598;SHT31;52267;51.984;20.956;2023-04-03T14:30:22;7.64;44.17
65598;SHT31;52267;51.984;20.956;2023-04-03T14:32:58;7.46;44.48
65598;SHT31;52267;51.984;20.956;2023-04-03T14:35:27;7.25;43.65
65598;SHT31;52267;51.984;20.956;2023-04-03T14:37:55;7.13;44.26
65598;SHT31;52267;51.984;20.956;2023-04-03T14:40:26;7.05;44.71
65598;SHT31;52267;51.984;20.956;2023-04-03T14:42:54;6.98;44.65
65598;SHT31;52267;51.984;20.956;2023-04-03T14:45:22;6.96;44.64
65598;SHT31;52267;51.984;20.956;2023-04-03T14:47:53;6.83;44.66
65598;SHT31;52267;51.984;20.956;2023-04-03T14:50:23;6.73;44.34
65598;SHT31;52267;51.984;20.956;2023-04-03T14:52:54;6.69;44.62
65598;SHT31;52267;51.984;20.956;2023-04-03T14:55:24;6.73;44.38
65598;SHT31;52267;51.984;20.956;2023-04-03T14:57:52;6.71;44.51
65598;SHT31;52267;51.984;20.956;2023-04-03T15:00:20;6.70;44.85
65598;SHT31;52267;51.984;20.956;2023-04-03T15:02:48;6.69;44.76
65598;SHT31;52267;51.984;20.956;2023-04-03T15:05:16;6.68;44.74
65598;SHT31;52267;51.984;20.956;2023-04-03T15:07:48;6.70;44.54
65598;SHT31;52267;51.984;20.956;2023-04-03T15:10:21;6.66;45.12
65598;SHT31;52267;51.984;20.956;2023-04-03T15:12:54;6.60;44.42
65598;SHT31;52267;51.984;20.956;2023-04-03T15:15:22;6.55;45.10
65598;SHT31;52267;51.984;20.956;2023-04-03T15:17:52;6.50;45.26
65598;SHT31;52267;51.984;20.956;2023-04-03T15:20:23;6.45;45.33
65598;SHT31;52267;51.984;20.956;2023-04-03T15:22:53;6.40;45.10
65598;SHT31;52267;51.984;20.956;2023-04-03T15:25:23;6.35;45.39
65598;SHT31;52267;51.984;20.956;2023-04-03T15:27:52;6.30;45.46
65598;SHT31;52267;51.984;20.956;2023-04-03T15:30:21;6.25;45.76
65598;SHT31;52267;51.984;20.956;2023-04-03T15:32:49;6.19;45.49
65598;SHT31;52267;51.984;20.956;2023-04-03T15:35:16;6.13;45.71
65598;SHT31;52267;51.984;20.956;2023-04-03T15:37:44;6.08;45.89
65598;SHT31;52267;51.984;20.956;2023-04-03T15:40:11;6.04;45.83
65598;SHT31;52267;51.984;20.956;2023-04-03T15:42:39;6.03;46.00
65598;SHT31;52267;51.984;20.956;2023-04-03T15:45:07;6.03;46.06
65598;SHT31;52267;51.984;20.956;2023-04-03T15:47:34;5.95;45.31
65598;SHT31;52267;51.984;20.956;2023-04-03T15:50:02;5.93;45.82
65598;SHT31;52267;51.984;20.956;2023-04-03T15:52:32;5.91;46.26
65598;SHT31;52267;51.984;20.956;2023-04-03T15:54:59;5.89;45.82
65598;SHT31;52267;51.984;20.956;2023-04-03T15:57:26;5.84;46.02
65598;SHT31;52267;51.984;20.956;2023-04-03T15:59:53;5.83;46.10
65598;SHT31;52267;51.984;20.956;2023-04-03T16:02:20;5.80;46.28
65598;SHT31;52267;51.984;20.956;2023-04-03T16:04:47;5.75;46.39
65598;SHT31;52267;51.984;20.956;2023-04-03T16:07:15;5.70;45.96
65598;SHT31;52267;51.984;20.956;2023-04-03T16:09:42;5.67;46.27
65598;SHT31;52267;51.984;20.956;2023-04-03T16:12:09;5.61;46.54
65598;SHT31;52267;51.984;20.956;2023-04-03T16:14:37;5.56;46.57
65598;SHT31;52267;51.984;20.956;2023-04-03T16:17:04;5.49;46.36
65598;SHT31;52267;51.984;20.956;2023-04-03T16:19:31;5.43;46.53
65598;SHT31;52267;51.984;20.956;2023-04-03T16:21:58;5.36;46.61
65598;SHT31;52267;51.984;20.956;2023-04-03T16:24:25;5.33;46.81
65598;SHT31;52267;51.984;20.956;2023-04-03T16:26:53;5.30;46.75
65598;SHT31;52267;51.984;20.956;2023-04-03T16:29:20;5.24;46.72
65598;SHT31;52267;51.984;20.956;2023-04-03T16:31:47;5.22;47.12
65598;SHT31;52267;51.984;20.956;2023-04-03T16:34:14;5.17;47.00
65598;SHT31;52267;51.984;20.956;2023-04-03T16:36:42;5.14;46.92
65598;SHT31;52267;51.984;20.956;2023-04-03T16:39:09;5.12;47.30
65598;SHT31;52267;51.984;20.956;2023-04-03T16:41:36;5.07;47.55
65598;SHT31;52267;51.984;20.956;2023-04-03T16:44:04;5.03;47.58
65598;SHT31;52267;51.984;20.956;2023-04-03T16:46:33;5.00;47.62
65598;SHT31;52267;51.984;20.956;2023-04-03T16:49:01;4.97;47.77
65598;SHT31;52267;51.984;20.956;2023-04-03T16:51:28;4.94;47.74
65598;SHT31;52267;51.984;20.956;2023-04-03T16:53:56;4.92;47.89
65598;SHT31;52267;51.984;20.956;2023-04-03T16:56:23;4.89;48.04
65598;SHT31;52267;51.984;20.956;2023-04-03T16:58:53;4.87;48.13
65598;SHT31;52267;51.984;20.956;2023-04-03T17:01:21;4.82;47.98
65598;SHT31;52267;51.984;20.956;2023-04-03T17:03:49;4.79;48.12
65598;SHT31;52267;51.984;20.956;2023-04-03T17:06:17;4.76;48.13
65598;SHT31;52267;51.984;20.956;2023-04-03T17:08:48;4.74;48.18
65598;SHT31;52267;51.984;20.956;2023-04-03T17:11:17;4.69;48.30
65598;SHT31;52267;51.984;20.956;2023-04-03T17:13:45;4.68;48.51
65598;SHT31;52267;51.984;20.956;2023-04-03T17:16:14;4.66;48.26
65598;SHT31;52267;51.984;20.956;2023-04-03T17:18:42;4.64;48.15
65598;SHT31;52267;51.984;20.956;2023-04-03T17:21:10;4.61;48.05
65598;SHT31;52267;51.984;20.956;2023-04-03T17:23:39;4.59;48.27
65598;SHT31;52267;51.984;20.956;2023-04-03T17:26:09;4.58;48.45
65598;SHT31;52267;51.984;20.956;2023-04-03T17:28:36;4.57;48.27
65598;SHT31;52267;51.984;20.956;2023-04-03T17:31:07;4.55;48.38
65598;SHT31;52267;51.984;20.956;2023-04-03T17:33:35;4.54;48.65
65598;SHT31;52267;51.984;20.956;2023-04-03T17:36:03;4.54;48.84